Time;durP1;ratioP1;P1;durP2;ratioP2;P2;SDS_P1;SDS_P2;PMS_P1;PMS_P2;Temp;Humidity;BMP_temperature;BMP_pressure;BME280_temperature;BME280_humidity;BME280_pressure;Samples;Min_cycle;Max_cycle;Signal;HPM_P1;HPM_P2
2023/01/04 00:01:34;;;;;;;3.20;2.90;;;;;;;;;;5059719;28;20174;-77
2023/01/04 00:03:59;;;;;;;1.50;1.40;;;;;;;;;;5074350;28;20215;-77
2023/01/04 00:06:25;;;;;;;6.53;4.20;;;;;;;;;;5065155;28;20186;-76
2023/01/04 00:08:50;;;;;;;3.13;2.53;;;;;;;;;;5060830;28;20185;-78
2023/01/04 00:11:16;;;;;;;2.13;1.37;;;;;;;;;;5072343;28;20323;-78
2023/01/04 00:13:42;;;;;;;1.40;1.30;;;;;;;;;;5063248;28;20204;-77
2023/01/04 00:16:09;;;;;;;3.20;1.50;;;;;;;;;;5063824;28;20193;-77
2023/01/04 00:18:35;;;;;;;1.50;1.40;;;;;;;;;;5078274;28;20258;-76
2023/01/04 00:21:14;;;;;;;2.50;1.10;;;;;;;;;;5063232;28;20218;-76
2023/01/04 00:23:39;;;;;;;1.03;1.03;;;;;;;;;;5068536;28;20182;-77
2023/01/04 00:26:09;;;;;;;1.20;1.10;;;;;;;;;;5063746;28;20182;-77
2023/01/04 00:28:34;;;;;;;2.43;1.10;;;;;;;;;;5068922;28;20177;-77
2023/01/04 00:31:06;;;;;;;1.37;1.27;;;;;;;;;;5061121;28;20310;-77
2023/01/04 00:33:32;;;;;;;2.07;1.23;;;;;;;;;;5061339;28;20230;-76
2023/01/04 00:36:04;;;;;;;1.00;1.00;;;;;;;;;;5066781;28;20201;-78
2023/01/04 00:38:29;;;;;;;1.40;1.10;;;;;;;;;;5066830;28;20174;-78
2023/01/04 00:40:54;;;;;;;1.67;1.40;;;;;;;;;;5071584;28;20173;-77
2023/01/04 00:43:20;;;;;;;1.10;0.97;;;;;;;;;;5069966;28;20190;-77
2023/01/04 00:45:45;;;;;;;2.03;1.07;;;;;;;;;;5064277;28;20189;-77
2023/01/04 00:48:10;;;;;;;1.77;1.33;;;;;;;;;;5064964;28;20241;-76
2023/01/04 00:50:35;;;;;;;3.40;1.33;;;;;;;;;;5051986;28;20205;-77
2023/01/04 00:53:00;;;;;;;1.40;1.07;;;;;;;;;;5073504;28;20209;-77
2023/01/04 00:55:26;;;;;;;1.00;0.90;;;;;;;;;;5060587;28;20176;-76
2023/01/04 00:57:51;;;;;;;3.43;1.30;;;;;;;;;;5057436;28;20186;-76
2023/01/04 01:00:16;;;;;;;2.13;1.20;;;;;;;;;;5060970;28;20183;-77
2023/01/04 01:02:41;;;;;;;0.90;0.90;;;;;;;;;;5056165;28;20186;-77
2023/01/04 01:05:07;;;;;;;0.80;0.80;;;;;;;;;;5055491;28;20184;-76
2023/01/04 01:07:32;;;;;;;2.37;1.10;;;;;;;;;;5060924;28;20175;-77
2023/01/04 01:09:57;;;;;;;1.53;1.33;;;;;;;;;;5059625;28;20182;-77
2023/01/04 01:12:22;;;;;;;0.97;0.97;;;;;;;;;;5065768;28;20219;-76
2023/01/04 01:14:48;;;;;;;1.87;0.80;;;;;;;;;;5062874;28;20180;-77
2023/01/04 01:17:13;;;;;;;1.93;1.30;;;;;;;;;;5061689;28;20174;-77
2023/01/04 01:19:38;;;;;;;1.20;1.10;;;;;;;;;;5060368;28;20217;-76
2023/01/04 01:22:03;;;;;;;1.50;1.40;;;;;;;;;;5060250;28;20393;-77
2023/01/04 01:24:28;;;;;;;1.10;1.07;;;;;;;;;;5058683;28;20210;-77
2023/01/04 01:26:54;;;;;;;1.50;1.40;;;;;;;;;;5063009;28;20179;-77
2023/01/04 01:29:19;;;;;;;1.53;1.37;;;;;;;;;;5061164;28;20198;-77
2023/01/04 01:31:45;;;;;;;1.70;1.60;;;;;;;;;;5062102;28;20183;-77
2023/01/04 01:34:10;;;;;;;1.23;1.13;;;;;;;;;;5064037;28;20208;-77
2023/01/04 01:36:35;;;;;;;1.40;1.30;;;;;;;;;;5065722;28;20225;-77
2023/01/04 01:39:00;;;;;;;1.50;1.30;;;;;;;;;;5059134;28;20212;-77
2023/01/04 01:41:27;;;;;;;2.73;1.30;;;;;;;;;;5067862;28;20175;-77
2023/01/04 01:43:58;;;;;;;1.40;1.30;;;;;;;;;;5070480;28;20206;-76
2023/01/04 01:46:30;;;;;;;1.90;1.53;;;;;;;;;;5065493;28;20182;-77
2023/01/04 01:48:58;;;;;;;1.83;1.73;;;;;;;;;;5069995;28;20181;-77
2023/01/04 01:51:24;;;;;;;1.50;1.10;;;;;;;;;;5065351;28;20180;-78
2023/01/04 01:53:53;;;;;;;4.37;2.20;;;;;;;;;;5069718;28;20284;-78
2023/01/04 01:56:18;;;;;;;2.00;1.50;;;;;;;;;;5069387;28;20205;-77
2023/01/04 01:58:45;;;;;;;1.30;1.10;;;;;;;;;;5064146;28;20175;-78
2023/01/04 02:01:11;;;;;;;1.50;1.30;;;;;;;;;;5060859;28;20195;-77
2023/01/04 02:03:40;;;;;;;0.90;0.90;;;;;;;;;;5058188;28;20187;-77
2023/01/04 02:06:07;;;;;;;1.30;1.20;;;;;;;;;;5060012;28;20219;-77
2023/01/04 02:08:32;;;;;;;1.40;1.10;;;;;;;;;;5083266;28;20179;-77
2023/01/04 02:10:57;;;;;;;2.00;0.83;;;;;;;;;;5065932;28;20249;-76
2023/01/04 02:14:25;;;;;;;1.60;1.17;;;;;;;;;;5061749;28;20210;-77
2023/01/04 02:16:21;;;;;;;1.20;1.10;;;;;;;;;;5070577;28;20208;-77
2023/01/04 02:19:00;;;;;;;1.13;1.10;;;;;;;;;;5077049;28;20179;-77
2023/01/04 02:21:46;;;;;;;1.13;1.03;;;;;;;;;;5062962;28;20237;-77
2023/01/04 02:24:37;;;;;;;1.63;1.40;;;;;;;;;;5061650;28;20187;-77
2023/01/04 02:27:02;;;;;;;1.00;1.00;;;;;;;;;;5044761;28;20291;-77
2023/01/04 02:29:46;;;;;;;1.10;1.00;;;;;;;;;;5067643;28;20197;-77
2023/01/04 02:32:17;;;;;;;1.10;1.00;;;;;;;;;;5064130;28;20288;-77
2023/01/04 02:34:59;;;;;;;1.40;1.00;;;;;;;;;;5068167;28;20183;-77
2023/01/04 02:37:30;;;;;;;2.13;1.20;;;;;;;;;;5067667;28;20177;-77
2023/01/04 02:39:55;;;;;;;1.33;1.13;;;;;;;;;;5073996;28;20169;-77
2023/01/04 02:44:51;;;;;;;1.33;1.17;;;;;;;;;;5067221;28;20178;-77
2023/01/04 02:45:18;;;;;;;2.33;1.10;;;;;;;;;;5071135;28;20205;-77
2023/01/04 02:50:32;;;;;;;2.10;1.00;;;;;;;;;;5064208;28;20205;-77
2023/01/04 02:52:58;;;;;;;0.87;0.87;;;;;;;;;;5065188;28;20200;-78
2023/01/04 02:55:25;;;;;;;1.33;1.23;;;;;;;;;;5066718;28;20477;-78
2023/01/04 02:57:59;;;;;;;1.77;1.67;;;;;;;;;;5062787;28;20193;-77
2023/01/04 03:00:33;;;;;;;1.80;1.10;;;;;;;;;;5071733;28;20166;-76
2023/01/04 03:06:15;;;;;;;0.70;0.70;;;;;;;;;;5064495;28;20187;-77
2023/01/04 03:09:16;;;;;;;0.90;0.90;;;;;;;;;;5064797;28;20182;-76
2023/01/04 03:14:28;;;;;;;1.20;0.80;;;;;;;;;;4983993;28;20270;-78
2023/01/04 03:16:54;;;;;;;2.00;1.10;;;;;;;;;;4990726;28;20180;-77
2023/01/04 03:35:21;;;;;;;1.07;0.97;;;;;;;;;;4977519;28;20195;-77
2023/01/04 03:35:58;;;;;;;1.17;1.07;;;;;;;;;;4986445;28;20235;-77
2023/01/04 03:49:56;;;;;;;1.70;1.60;;;;;;;;;;5064400;28;20253;-77
2023/01/04 03:52:22;;;;;;;1.20;1.10;;;;;;;;;;5064288;28;20210;-77
2023/01/04 03:54:49;;;;;;;2.30;2.10;;;;;;;;;;5073743;28;20182;-76
2023/01/04 03:57:14;;;;;;;2.10;1.30;;;;;;;;;;5066220;28;20256;-77
2023/01/04 03:59:46;;;;;;;1.27;1.03;;;;;;;;;;5074120;28;20265;-78
2023/01/04 04:02:13;;;;;;;2.20;2.03;;;;;;;;;;5067336;28;20239;-77
2023/01/04 04:10:07;;;;;;;1.70;0.93;;;;;;;;;;5071909;28;20247;-77
2023/01/04 04:12:32;;;;;;;4.07;2.10;;;;;;;;;;5070217;28;20253;-77
2023/01/04 04:14:58;;;;;;;0.90;0.80;;;;;;;;;;5067174;28;20182;-77
2023/01/04 04:17:23;;;;;;;0.80;0.80;;;;;;;;;;5076124;28;20185;-77
2023/01/04 04:19:48;;;;;;;1.43;1.03;;;;;;;;;;5064706;28;20280;-77
2023/01/04 04:22:13;;;;;;;0.93;0.90;;;;;;;;;;5062686;28;20234;-77
2023/01/04 04:24:38;;;;;;;0.70;0.70;;;;;;;;;;5069288;28;20177;-77
2023/01/04 04:27:03;;;;;;;1.20;0.90;;;;;;;;;;5068350;28;20194;-77
2023/01/04 04:29:29;;;;;;;2.83;1.17;;;;;;;;;;5068578;28;20203;-77
2023/01/04 04:31:54;;;;;;;1.00;0.90;;;;;;;;;;5062761;28;20241;-78
2023/01/04 04:34:19;;;;;;;0.90;0.90;;;;;;;;;;5061934;28;20212;-78
2023/01/04 04:36:44;;;;;;;1.00;0.90;;;;;;;;;;5063342;28;20228;-77
2023/01/04 04:39:10;;;;;;;1.03;0.93;;;;;;;;;;5059154;28;20178;-78
2023/01/04 04:41:38;;;;;;;0.97;0.90;;;;;;;;;;5069438;28;20187;-77
2023/01/04 04:44:08;;;;;;;0.77;0.77;;;;;;;;;;5069870;28;20234;-78
2023/01/04 04:46:34;;;;;;;1.83;0.87;;;;;;;;;;5081066;28;20423;-77
2023/01/04 04:48:59;;;;;;;3.83;1.10;;;;;;;;;;5063196;28;20251;-77
2023/01/04 04:51:24;;;;;;;2.33;1.07;;;;;;;;;;5064191;28;20191;-77
2023/01/04 04:53:49;;;;;;;0.90;0.90;;;;;;;;;;5073926;28;20198;-78
2023/01/04 04:56:15;;;;;;;1.60;0.70;;;;;;;;;;5062606;28;20179;-77
2023/01/04 04:58:40;;;;;;;0.90;0.90;;;;;;;;;;5066025;28;20261;-77
2023/01/04 05:01:05;;;;;;;1.23;0.90;;;;;;;;;;5070287;28;20204;-77
2023/01/04 05:03:30;;;;;;;0.57;0.57;;;;;;;;;;5075505;28;20188;-76
2023/01/04 05:05:56;;;;;;;1.20;1.10;;;;;;;;;;5071780;28;20177;-77
2023/01/04 05:08:21;;;;;;;3.47;1.53;;;;;;;;;;5069004;28;20191;-77
2023/01/04 05:10:46;;;;;;;1.33;0.90;;;;;;;;;;5058822;28;20317;-78
2023/01/04 05:13:12;;;;;;;1.17;0.90;;;;;;;;;;5067145;28;20199;-77
2023/01/04 05:15:39;;;;;;;0.73;0.73;;;;;;;;;;5065379;28;20206;-77
2023/01/04 05:18:05;;;;;;;1.23;1.10;;;;;;;;;;5067597;28;20178;-78
2023/01/04 05:20:30;;;;;;;1.00;0.90;;;;;;;;;;5068868;28;20250;-78
2023/01/04 05:22:56;;;;;;;2.37;1.83;;;;;;;;;;5068124;28;20174;-77
2023/01/04 05:25:21;;;;;;;0.83;0.83;;;;;;;;;;5065391;28;20181;-77
2023/01/04 05:27:47;;;;;;;0.83;0.83;;;;;;;;;;5062218;28;20270;-78
2023/01/04 05:32:57;;;;;;;0.87;0.87;;;;;;;;;;5066275;28;20327;-78
2023/01/04 05:35:22;;;;;;;0.80;0.80;;;;;;;;;;5060547;28;20262;-77
2023/01/04 05:37:47;;;;;;;0.97;0.97;;;;;;;;;;5071901;28;20201;-77
2023/01/04 05:40:12;;;;;;;3.17;1.10;;;;;;;;;;5067069;28;20181;-77
2023/01/04 05:42:38;;;;;;;1.57;1.10;;;;;;;;;;5064322;28;20176;-77
2023/01/04 05:45:03;;;;;;;1.17;1.07;;;;;;;;;;5066733;28;20176;-78
2023/01/04 05:47:28;;;;;;;2.90;1.30;;;;;;;;;;5065817;28;20264;-78
2023/01/04 05:49:53;;;;;;;1.93;1.17;;;;;;;;;;5066533;28;20264;-78
2023/01/04 05:52:19;;;;;;;1.70;0.90;;;;;;;;;;5066171;28;20187;-77
2023/01/04 05:54:44;;;;;;;0.80;0.80;;;;;;;;;;5075814;28;20178;-77
2023/01/04 05:57:11;;;;;;;1.60;1.20;;;;;;;;;;5073913;28;20174;-77
2023/01/04 05:59:37;;;;;;;1.40;1.30;;;;;;;;;;5061628;28;20178;-77
2023/01/04 06:02:02;;;;;;;3.03;1.83;;;;;;;;;;5063941;28;20232;-77
2023/01/04 06:04:29;;;;;;;2.40;2.17;;;;;;;;;;5075502;28;20192;-78
2023/01/04 06:06:54;;;;;;;4.90;4.60;;;;;;;;;;5069711;28;20181;-77
2023/01/04 06:09:19;;;;;;;1.50;1.00;;;;;;;;;;5065459;28;20180;-78
2023/01/04 06:11:45;;;;;;;1.10;1.00;;;;;;;;;;5083759;28;20242;-76
2023/01/04 06:14:10;;;;;;;1.13;1.00;;;;;;;;;;5068470;28;20209;-78
2023/01/04 06:16:35;;;;;;;1.20;1.10;;;;;;;;;;5071712;28;20272;-77
2023/01/04 06:19:01;;;;;;;1.47;1.10;;;;;;;;;;5065486;28;20182;-77
2023/01/04 06:21:26;;;;;;;1.70;1.40;;;;;;;;;;5085248;28;20186;-77
2023/01/04 06:23:52;;;;;;;1.30;1.20;;;;;;;;;;5068264;28;20225;-78
2023/01/04 06:26:17;;;;;;;1.47;1.27;;;;;;;;;;5070592;28;20206;-77
2023/01/04 06:28:42;;;;;;;1.70;1.13;;;;;;;;;;5068642;28;20172;-77
2023/01/04 06:31:08;;;;;;;1.13;1.07;;;;;;;;;;5067920;28;20228;-78
2023/01/04 06:33:33;;;;;;;1.17;1.07;;;;;;;;;;5063177;28;20226;-77
2023/01/04 06:35:58;;;;;;;1.50;1.40;;;;;;;;;;5073584;28;20306;-78
2023/01/04 06:38:24;;;;;;;2.47;1.30;;;;;;;;;;5068385;28;20175;-77
2023/01/04 06:40:49;;;;;;;1.50;1.23;;;;;;;;;;5070260;28;20177;-77
2023/01/04 06:43:14;;;;;;;1.17;1.07;;;;;;;;;;5065622;28;20494;-78
2023/01/04 06:45:40;;;;;;;1.40;0.90;;;;;;;;;;5061313;28;20171;-77
2023/01/04 06:48:05;;;;;;;1.03;0.90;;;;;;;;;;5070832;28;20204;-78
2023/01/04 06:50:31;;;;;;;0.80;0.80;;;;;;;;;;5070493;28;20182;-77
2023/01/04 06:52:56;;;;;;;3.20;1.10;;;;;;;;;;5067229;28;20232;-77
2023/01/04 06:55:21;;;;;;;2.43;0.93;;;;;;;;;;5069355;28;20180;-77
2023/01/04 06:57:46;;;;;;;1.17;0.90;;;;;;;;;;5085524;28;20173;-78
2023/01/04 07:00:12;;;;;;;2.60;1.00;;;;;;;;;;5068933;28;20166;-77
2023/01/04 07:02:37;;;;;;;1.40;0.90;;;;;;;;;;5071877;28;20178;-78
2023/01/04 07:05:03;;;;;;;1.57;0.90;;;;;;;;;;5068141;28;20173;-77
2023/01/04 07:07:28;;;;;;;1.03;0.73;;;;;;;;;;5064451;28;20174;-77
2023/01/04 07:09:53;;;;;;;1.77;1.00;;;;;;;;;;5064299;28;20384;-77
2023/01/04 07:12:19;;;;;;;0.90;0.90;;;;;;;;;;5066095;28;20183;-77
2023/01/04 07:14:44;;;;;;;0.90;0.90;;;;;;;;;;5079359;28;20177;-77
2023/01/04 07:17:09;;;;;;;1.57;1.47;;;;;;;;;;5067482;28;20199;-78
2023/01/04 07:19:34;;;;;;;1.80;1.67;;;;;;;;;;5055696;28;20230;-78
2023/01/04 07:22:00;;;;;;;1.17;1.07;;;;;;;;;;5076722;28;20217;-77
2023/01/04 07:24:26;;;;;;;3.40;2.00;;;;;;;;;;5066512;28;20185;-78
2023/01/04 07:26:51;;;;;;;4.77;3.97;;;;;;;;;;5060802;28;20183;-76
2023/01/04 07:29:16;;;;;;;2.33;2.13;;;;;;;;;;5066318;28;20186;-78
2023/01/04 07:31:46;;;;;;;2.57;1.83;;;;;;;;;;5062742;28;20181;-77
2023/01/04 07:34:12;;;;;;;1.53;1.43;;;;;;;;;;5062089;28;20232;-77
2023/01/04 07:36:37;;;;;;;1.30;1.17;;;;;;;;;;5065396;28;20203;-77
2023/01/04 07:39:02;;;;;;;2.40;0.97;;;;;;;;;;5063740;28;20186;-78
2023/01/04 07:41:27;;;;;;;1.53;1.40;;;;;;;;;;5058006;28;20173;-78
2023/01/04 07:43:52;;;;;;;0.97;0.97;;;;;;;;;;5063293;28;20273;-77
2023/01/04 07:46:18;;;;;;;0.80;0.80;;;;;;;;;;5074476;28;20185;-77
2023/01/04 07:48:43;;;;;;;4.00;2.90;;;;;;;;;;5068894;28;20191;-77
2023/01/04 07:51:08;;;;;;;3.30;2.27;;;;;;;;;;5070990;28;20257;-77
2023/01/04 07:53:34;;;;;;;0.93;0.93;;;;;;;;;;5073374;28;20209;-77
2023/01/04 07:55:59;;;;;;;1.70;1.60;;;;;;;;;;5064289;28;20195;-77
2023/01/04 07:58:24;;;;;;;0.97;0.97;;;;;;;;;;5059738;28;20181;-78
2023/01/04 08:00:50;;;;;;;1.67;1.57;;;;;;;;;;5062753;28;20238;-77
2023/01/04 08:03:15;;;;;;;1.47;1.37;;;;;;;;;;5057161;28;20195;-78
2023/01/04 08:05:41;;;;;;;1.97;1.77;;;;;;;;;;5068500;28;20181;-77
2023/01/04 08:08:06;;;;;;;2.70;2.10;;;;;;;;;;5085423;28;20187;-78
2023/01/04 08:10:31;;;;;;;3.63;2.73;;;;;;;;;;5073470;28;20177;-77
2023/01/04 08:12:58;;;;;;;4.30;3.90;;;;;;;;;;5074837;28;20211;-78
2023/01/04 08:15:23;;;;;;;3.80;3.00;;;;;;;;;;5064887;28;20181;-77
2023/01/04 08:17:48;;;;;;;3.17;1.87;;;;;;;;;;5061347;28;20178;-77
2023/01/04 08:20:13;;;;;;;3.10;2.07;;;;;;;;;;5069341;28;20170;-78
2023/01/04 08:22:39;;;;;;;8.47;5.50;;;;;;;;;;5065133;28;20175;-78
2023/01/04 08:25:05;;;;;;;9.50;7.40;;;;;;;;;;5062333;28;20174;-77
2023/01/04 08:27:30;;;;;;;2.90;2.60;;;;;;;;;;5064444;28;20217;-78
2023/01/04 08:29:55;;;;;;;2.70;1.87;;;;;;;;;;5053462;28;20200;-77
2023/01/04 08:32:20;;;;;;;2.30;1.60;;;;;;;;;;5067132;28;20249;-77
2023/01/04 08:34:46;;;;;;;1.57;1.17;;;;;;;;;;5063055;28;20201;-77
2023/01/04 08:37:11;;;;;;;1.60;1.00;;;;;;;;;;5065978;28;20183;-78
2023/01/04 08:39:36;;;;;;;1.27;1.17;;;;;;;;;;5057972;28;20175;-77
2023/01/04 08:42:02;;;;;;;2.17;1.00;;;;;;;;;;5064798;28;20181;-78
2023/01/04 08:44:27;;;;;;;1.20;1.10;;;;;;;;;;5063680;28;20174;-77
2023/01/04 08:46:53;;;;;;;1.33;1.23;;;;;;;;;;5056445;28;20183;-78
2023/01/04 08:49:19;;;;;;;2.93;1.50;;;;;;;;;;5062520;28;20184;-77
2023/01/04 08:51:44;;;;;;;1.10;1.00;;;;;;;;;;5066114;28;20177;-77
2023/01/04 08:54:10;;;;;;;0.90;0.90;;;;;;;;;;5057658;28;20219;-78
2023/01/04 08:56:35;;;;;;;1.30;1.20;;;;;;;;;;5075800;28;20250;-78
2023/01/04 08:59:01;;;;;;;1.60;1.50;;;;;;;;;;5061748;28;20180;-77
2023/01/04 09:01:26;;;;;;;1.20;1.10;;;;;;;;;;5051789;28;20198;-78
2023/01/04 09:03:51;;;;;;;0.90;0.90;;;;;;;;;;5057077;28;20179;-77
2023/01/04 09:06:16;;;;;;;2.00;1.23;;;;;;;;;;5052183;28;20212;-77
2023/01/04 09:08:43;;;;;;;1.50;0.90;;;;;;;;;;5064271;28;20185;-77
2023/01/04 09:11:09;;;;;;;1.50;1.40;;;;;;;;;;5067230;28;20207;-78
2023/01/04 09:13:35;;;;;;;0.80;0.80;;;;;;;;;;5065159;28;20207;-78
2023/01/04 09:16:00;;;;;;;3.00;2.40;;;;;;;;;;5058982;28;20274;-78
2023/01/04 09:18:26;;;;;;;1.77;1.10;;;;;;;;;;5061579;28;20177;-78
2023/01/04 09:20:51;;;;;;;2.00;1.90;;;;;;;;;;5061871;28;20196;-78
2023/01/04 09:23:16;;;;;;;1.10;1.00;;;;;;;;;;5070887;28;20187;-77
2023/01/04 09:25:41;;;;;;;2.93;1.13;;;;;;;;;;5062600;28;20175;-77
2023/01/04 09:28:06;;;;;;;1.97;1.70;;;;;;;;;;5055605;28;20184;-79
2023/01/04 09:30:32;;;;;;;1.37;1.27;;;;;;;;;;5075240;28;20219;-77
2023/01/04 09:32:57;;;;;;;2.27;1.77;;;;;;;;;;5056959;28;20228;-77
2023/01/04 09:35:23;;;;;;;1.73;1.50;;;;;;;;;;5060865;28;20259;-77
2023/01/04 09:37:48;;;;;;;1.33;0.97;;;;;;;;;;5060954;28;20235;-78
2023/01/04 09:40:19;;;;;;;1.30;1.20;;;;;;;;;;5058817;28;20208;-77
2023/01/04 09:42:44;;;;;;;2.07;1.93;;;;;;;;;;5055971;28;20295;-78
2023/01/04 09:45:16;;;;;;;1.90;1.60;;;;;;;;;;5056462;28;20260;-77
2023/01/04 09:47:48;;;;;;;1.20;1.10;;;;;;;;;;5064426;28;20237;-78
2023/01/04 09:50:32;;;;;;;1.93;1.80;;;;;;;;;;5070988;28;20179;-78
2023/01/04 09:53:17;;;;;;;2.67;1.80;;;;;;;;;;5059308;28;20261;-78
2023/01/04 09:55:46;;;;;;;2.57;1.43;;;;;;;;;;5061285;28;20182;-77
2023/01/04 09:58:18;;;;;;;2.87;2.57;;;;;;;;;;5064852;28;20191;-77
2023/01/04 10:00:45;;;;;;;2.87;1.90;;;;;;;;;;5065590;28;20176;-78
2023/01/04 10:03:22;;;;;;;5.23;2.00;;;;;;;;;;5060243;28;20192;-78
2023/01/04 10:05:47;;;;;;;1.70;1.40;;;;;;;;;;5057804;28;20192;-77
2023/01/04 10:08:14;;;;;;;1.80;1.70;;;;;;;;;;5059633;28;20175;-77
2023/01/04 10:10:45;;;;;;;1.53;1.23;;;;;;;;;;5063835;28;20184;-78
2023/01/04 10:13:20;;;;;;;1.60;1.50;;;;;;;;;;5057044;28;20232;-78
2023/01/04 10:15:53;;;;;;;1.60;1.30;;;;;;;;;;5068509;28;20195;-78
2023/01/04 10:18:19;;;;;;;2.63;1.40;;;;;;;;;;5076323;28;20181;-78
2023/01/04 10:20:50;;;;;;;3.53;1.70;;;;;;;;;;5065227;28;20199;-78
2023/01/04 10:23:34;;;;;;;1.90;1.60;;;;;;;;;;5063460;28;20192;-78
2023/01/04 10:26:13;;;;;;;2.00;1.00;;;;;;;;;;5064557;28;20182;-78
2023/01/04 10:28:53;;;;;;;3.00;1.30;;;;;;;;;;5061558;28;20193;-77
2023/01/04 10:31:23;;;;;;;5.60;1.60;;;;;;;;;;5063522;28;20184;-78
2023/01/04 10:33:49;;;;;;;2.40;1.63;;;;;;;;;;5078897;28;20236;-78
2023/01/04 10:36:23;;;;;;;1.40;1.30;;;;;;;;;;5062406;28;20299;-78
2023/01/04 10:38:51;;;;;;;1.63;1.40;;;;;;;;;;5082282;28;20185;-78
2023/01/04 10:41:25;;;;;;;1.60;1.40;;;;;;;;;;5067587;28;20187;-78
2023/01/04 10:43:54;;;;;;;1.00;1.00;;;;;;;;;;5064452;28;20193;-77
2023/01/04 10:46:24;;;;;;;4.67;1.33;;;;;;;;;;5061330;28;20284;-77
2023/01/04 10:48:51;;;;;;;1.23;1.13;;;;;;;;;;5064911;28;20197;-77
2023/01/04 10:51:26;;;;;;;0.97;0.97;;;;;;;;;;5066051;28;20181;-78
2023/01/04 10:54:27;;;;;;;1.50;1.10;;;;;;;;;;5069653;28;20216;-78
2023/01/04 10:57:11;;;;;;;1.63;0.90;;;;;;;;;;5005091;28;20190;-77
2023/01/04 10:59:36;;;;;;;1.03;0.80;;;;;;;;;;4986337;28;20198;-78
2023/01/04 11:02:07;;;;;;;0.80;0.80;;;;;;;;;;4995712;28;20186;-77
2023/01/04 11:04:34;;;;;;;0.83;0.83;;;;;;;;;;4985550;28;20183;-78
2023/01/04 11:07:11;;;;;;;1.13;0.83;;;;;;;;;;4988449;28;20187;-77
2023/01/04 11:09:51;;;;;;;1.90;1.73;;;;;;;;;;4988458;28;20262;-79
2023/01/04 11:12:16;;;;;;;1.23;1.13;;;;;;;;;;4989121;28;20192;-78
2023/01/04 11:14:42;;;;;;;2.07;0.83;;;;;;;;;;4991686;28;20219;-78
2023/01/04 11:17:09;;;;;;;2.40;0.93;;;;;;;;;;4993810;28;20226;-78
2023/01/04 11:19:35;;;;;;;0.80;0.80;;;;;;;;;;5007236;28;20223;-78
2023/01/04 11:22:23;;;;;;;1.50;0.70;;;;;;;;;;4986379;28;20176;-78
2023/01/04 11:24:50;;;;;;;0.60;0.60;;;;;;;;;;4982773;28;20199;-78
2023/01/04 11:27:19;;;;;;;1.20;0.87;;;;;;;;;;4991301;28;20187;-78
2023/01/04 11:29:51;;;;;;;3.10;2.03;;;;;;;;;;4989985;28;20256;-78
2023/01/04 11:32:31;;;;;;;1.00;0.70;;;;;;;;;;5072599;28;20213;-78
2023/01/04 11:34:56;;;;;;;1.30;0.80;;;;;;;;;;5060408;28;20176;-78
2023/01/04 11:37:23;;;;;;;0.87;0.87;;;;;;;;;;5064677;28;20183;-78
2023/01/04 11:39:48;;;;;;;1.00;0.90;;;;;;;;;;5063978;28;20308;-78
2023/01/04 11:42:20;;;;;;;0.70;0.70;;;;;;;;;;5062387;28;20270;-78
2023/01/04 11:44:56;;;;;;;0.40;0.40;;;;;;;;;;5067241;28;20325;-78
2023/01/04 11:47:23;;;;;;;1.00;0.97;;;;;;;;;;5058460;28;20224;-78
2023/01/04 11:49:49;;;;;;;0.60;0.60;;;;;;;;;;5064415;28;20227;-78
2023/01/04 11:52:26;;;;;;;0.53;0.53;;;;;;;;;;5064303;28;20186;-78
2023/01/04 11:54:51;;;;;;;0.53;0.50;;;;;;;;;;5070451;28;20202;-78
2023/01/04 11:57:17;;;;;;;0.80;0.80;;;;;;;;;;5081832;28;20187;-78
2023/01/04 11:59:43;;;;;;;0.80;0.80;;;;;;;;;;5066924;28;20193;-78
2023/01/04 12:02:14;;;;;;;0.60;0.60;;;;;;;;;;5068173;28;20220;-79
2023/01/04 12:04:39;;;;;;;0.67;0.40;;;;;;;;;;5066310;28;20182;-78
2023/01/04 12:07:10;;;;;;;0.60;0.50;;;;;;;;;;5074199;28;20269;-78
2023/01/04 12:09:35;;;;;;;1.20;0.60;;;;;;;;;;5065800;28;20186;-78
2023/01/04 12:12:00;;;;;;;0.57;0.57;;;;;;;;;;5079727;28;20199;-78
2023/01/04 12:14:27;;;;;;;0.53;0.53;;;;;;;;;;5071955;28;20220;-78
2023/01/04 12:17:01;;;;;;;1.17;0.70;;;;;;;;;;5072315;28;20181;-78
2023/01/04 12:19:27;;;;;;;1.57;1.03;;;;;;;;;;5075980;28;20199;-78
2023/01/04 12:21:54;;;;;;;0.67;0.67;;;;;;;;;;5065372;28;20185;-78
2023/01/04 12:24:24;;;;;;;0.50;0.50;;;;;;;;;;5065908;28;20178;-78
2023/01/04 12:26:50;;;;;;;1.73;0.70;;;;;;;;;;5057766;28;20213;-78
2023/01/04 12:29:21;;;;;;;0.57;0.50;;;;;;;;;;5068784;28;20173;-78
2023/01/04 12:31:47;;;;;;;1.63;0.90;;;;;;;;;;5064241;28;20204;-78
2023/01/04 12:34:12;;;;;;;1.13;0.70;;;;;;;;;;5054914;28;20227;-78
2023/01/04 12:36:37;;;;;;;0.50;0.50;;;;;;;;;;5067617;28;20191;-78
2023/01/04 12:39:15;;;;;;;10.77;6.27;;;;;;;;;;5065522;28;20266;-78
2023/01/04 12:41:40;;;;;;;1.07;1.03;;;;;;;;;;5064018;28;20173;-78
2023/01/04 12:44:24;;;;;;;0.50;0.50;;;;;;;;;;5051765;28;20193;-79
2023/01/04 12:49:40;;;;;;;8.13;7.30;;;;;;;;;;5063416;28;20209;-78
2023/01/04 12:52:08;;;;;;;0.77;0.70;;;;;;;;;;5056588;28;20194;-78
2023/01/04 12:54:48;;;;;;;0.67;0.67;;;;;;;;;;5063204;28;20655;-79
2023/01/04 12:57:16;;;;;;;2.57;1.50;;;;;;;;;;5069611;28;20178;-78
2023/01/04 12:59:54;;;;;;;0.80;0.80;;;;;;;;;;5063928;28;20179;-78
2023/01/04 13:02:21;;;;;;;1.60;1.50;;;;;;;;;;5063552;28;20173;-78
2023/01/04 13:04:47;;;;;;;0.80;0.80;;;;;;;;;;5067241;28;20186;-79
2023/01/04 13:07:21;;;;;;;0.60;0.60;;;;;;;;;;5076779;28;20296;-78
2023/01/04 13:09:50;;;;;;;1.27;1.03;;;;;;;;;;5064600;28;20174;-78
2023/01/04 13:12:34;;;;;;;0.87;0.80;;;;;;;;;;5065705;28;20177;-78
2023/01/04 13:15:04;;;;;;;1.70;0.80;;;;;;;;;;5064907;28;20232;-78
2023/01/04 13:17:34;;;;;;;0.60;0.60;;;;;;;;;;5060092;28;20220;-79
2023/01/04 13:20:05;;;;;;;1.50;1.10;;;;;;;;;;5074028;28;20178;-78
2023/01/04 13:22:32;;;;;;;0.80;0.60;;;;;;;;;;5067100;28;20182;-78
2023/01/04 13:24:59;;;;;;;0.83;0.83;;;;;;;;;;5072621;28;20185;-78
2023/01/04 13:27:25;;;;;;;0.97;0.70;;;;;;;;;;5058411;28;20260;-78
2023/01/04 13:29:50;;;;;;;0.80;0.57;;;;;;;;;;5065778;28;20185;-79
2023/01/04 13:32:27;;;;;;;0.63;0.63;;;;;;;;;;5062453;28;20229;-78
2023/01/04 13:34:55;;;;;;;0.70;0.70;;;;;;;;;;5063388;28;20217;-79
2023/01/04 13:37:20;;;;;;;1.07;0.93;;;;;;;;;;5068468;28;20182;-78
2023/01/04 13:39:50;;;;;;;0.93;0.93;;;;;;;;;;5065869;28;20183;-78
2023/01/04 13:42:19;;;;;;;1.10;1.00;;;;;;;;;;5062217;28;20265;-78
2023/01/04 13:44:44;;;;;;;0.90;0.90;;;;;;;;;;5057425;28;20273;-78
2023/01/04 13:47:09;;;;;;;1.27;0.70;;;;;;;;;;5064222;28;20512;-78
2023/01/04 13:49:39;;;;;;;2.53;1.60;;;;;;;;;;5070898;28;20174;-78
2023/01/04 13:52:18;;;;;;;1.83;1.10;;;;;;;;;;5062405;28;20208;-78
2023/01/04 13:54:44;;;;;;;0.70;0.70;;;;;;;;;;5066913;28;20238;-78
2023/01/04 13:57:09;;;;;;;2.07;1.20;;;;;;;;;;5060801;28;20206;-78
2023/01/04 13:59:35;;;;;;;0.73;0.73;;;;;;;;;;5058317;28;20204;-79
2023/01/04 14:02:00;;;;;;;1.17;1.03;;;;;;;;;;5074218;28;20180;-78
2023/01/04 14:04:27;;;;;;;2.03;1.63;;;;;;;;;;5070932;28;20189;-79
2023/01/04 14:06:54;;;;;;;0.90;0.80;;;;;;;;;;5062894;28;20188;-78
2023/01/04 14:09:21;;;;;;;1.70;0.90;;;;;;;;;;5067970;28;20238;-79
2023/01/04 14:12:03;;;;;;;0.93;0.87;;;;;;;;;;5064438;28;20188;-78
2023/01/04 14:14:29;;;;;;;1.33;0.97;;;;;;;;;;5069928;28;20312;-78
2023/01/04 14:17:13;;;;;;;0.60;0.60;;;;;;;;;;5063976;28;20264;-78
2023/01/04 14:19:41;;;;;;;0.80;0.70;;;;;;;;;;5058753;28;20174;-79
2023/01/04 14:22:21;;;;;;;2.20;0.60;;;;;;;;;;5060833;28;20181;-78
2023/01/04 14:24:47;;;;;;;0.90;0.90;;;;;;;;;;5064704;28;20253;-78
2023/01/04 14:27:32;;;;;;;0.80;0.80;;;;;;;;;;5066886;28;20269;-81
2023/01/04 14:29:57;;;;;;;0.50;0.50;;;;;;;;;;5075809;28;20181;-81
2023/01/04 14:32:23;;;;;;;2.47;0.77;;;;;;;;;;5075820;28;20279;-81
2023/01/04 14:34:48;;;;;;;0.97;0.50;;;;;;;;;;5080321;28;20229;-81
2023/01/04 14:37:14;;;;;;;0.73;0.60;;;;;;;;;;5065440;28;20180;-82
2023/01/04 14:39:40;;;;;;;0.60;0.47;;;;;;;;;;5073231;28;20213;-81
2023/01/04 14:42:22;;;;;;;0.70;0.53;;;;;;;;;;5060083;28;20186;-81
2023/01/04 14:44:47;;;;;;;0.50;0.50;;;;;;;;;;5090444;28;20188;-81
2023/01/04 14:47:12;;;;;;;2.73;1.80;;;;;;;;;;5080545;28;20268;-82
2023/01/04 14:49:38;;;;;;;0.63;0.63;;;;;;;;;;5062776;28;20186;-81
2023/01/04 14:52:08;;;;;;;0.60;0.60;;;;;;;;;;5071938;28;20220;-81
2023/01/04 14:54:34;;;;;;;4.33;0.57;;;;;;;;;;5078463;28;20198;-81
2023/01/04 14:56:59;;;;;;;0.70;0.63;;;;;;;;;;5069445;28;20232;-81
2023/01/04 14:59:25;;;;;;;1.00;0.90;;;;;;;;;;5063754;28;20174;-82
2023/01/04 15:01:51;;;;;;;1.47;1.03;;;;;;;;;;5059993;28;20213;-81
2023/01/04 15:04:16;;;;;;;0.60;0.60;;;;;;;;;;5065301;28;20182;-81
2023/01/04 15:06:45;;;;;;;0.67;0.63;;;;;;;;;;5065403;28;20195;-82
2023/01/04 15:09:11;;;;;;;0.67;0.60;;;;;;;;;;5069482;28;20210;-81
2023/01/04 15:11:36;;;;;;;0.73;0.70;;;;;;;;;;5082056;28;20270;-80
2023/01/04 15:14:01;;;;;;;0.60;0.60;;;;;;;;;;5065173;28;20207;-81
2023/01/04 15:16:26;;;;;;;0.90;0.67;;;;;;;;;;5066539;28;20232;-81
2023/01/04 15:18:52;;;;;;;0.63;0.63;;;;;;;;;;5065718;28;20456;-81
2023/01/04 15:21:17;;;;;;;0.77;0.50;;;;;;;;;;5065978;28;20281;-81
2023/01/04 15:23:42;;;;;;;0.70;0.50;;;;;;;;;;5070649;28;20186;-81
2023/01/04 15:26:09;;;;;;;0.60;0.60;;;;;;;;;;5068800;28;20196;-81
2023/01/04 15:28:34;;;;;;;2.37;1.10;;;;;;;;;;5075670;28;20223;-81
2023/01/04 15:31:00;;;;;;;0.60;0.60;;;;;;;;;;5069111;28;20181;-81
2023/01/04 15:33:30;;;;;;;0.70;0.70;;;;;;;;;;5071016;28;20241;-81